createdAt,value
2018-05-03T00:02:02.002Z,71.90
2018-05-03T00:05:04.721Z,72.20
2018-05-03T00:08:06.741Z,72.20
2018-05-03T00:11:08.897Z,72.00
2018-05-03T00:14:11.699Z,72.70
2018-05-03T00:17:13.689Z,72.60
2018-05-03T00:20:15.734Z,72.00
2018-05-03T00:23:18.516Z,72.70
2018-05-03T00:26:20.532Z,72.70
2018-05-03T00:29:22.572Z,72.30
2018-05-03T00:32:24.744Z,72.90
2018-05-03T00:35:26.748Z,73.10
2018-05-03T00:38:28.761Z,73.70
2018-05-03T00:41:31.557Z,73.90
2018-05-03T00:44:33.577Z,73.90
2018-05-03T00:47:35.589Z,73.70
2018-05-03T00:50:37.594Z,73.80
2018-05-03T00:53:39.611Z,74.00
2018-05-03T00:56:41.623Z,74.20
2018-05-03T00:59:43.633Z,74.30
2018-05-03T01:02:45.705Z,74.50
2018-05-03T01:05:47.691Z,74.70
2018-05-03T01:08:49.730Z,74.30
2018-05-03T01:11:51.852Z,74.90
2018-05-03T01:14:53.907Z,75.20
2018-05-03T01:17:55.893Z,75.40
2018-05-03T01:20:57.910Z,75.60
2018-05-03T01:23:59.902Z,75.80
2018-05-03T01:27:01.933Z,76.50
2018-05-03T01:30:04.588Z,76.50
2018-05-03T01:33:06.626Z,76.00
2018-05-03T01:36:27.540Z,75.80
2018-05-03T01:39:30.313Z,75.90
2018-05-03T01:42:32.313Z,75.90
2018-05-03T01:45:34.677Z,76.20
2018-05-03T01:48:36.960Z,76.20
2018-05-03T01:51:38.942Z,76.50
2018-05-03T01:54:40.977Z,76.90
2018-05-03T01:57:43.780Z,76.30
2018-05-03T02:00:45.761Z,76.20
2018-05-03T02:03:47.755Z,76.50
2018-05-03T02:06:50.550Z,76.50
2018-05-03T02:09:52.869Z,76.50
2018-05-03T02:12:54.880Z,76.70
2018-05-03T02:15:56.851Z,76.70
2018-05-03T02:18:58.850Z,76.60
2018-05-03T02:22:00.983Z,76.60
2018-05-03T02:25:02.959Z,76.80
2018-05-03T02:28:04.969Z,77.70
2018-05-03T02:31:07.779Z,77.00
2018-05-03T02:34:09.753Z,77.00
2018-05-03T02:37:11.764Z,77.00
2018-05-03T02:40:14.549Z,76.80
2018-05-03T02:43:16.544Z,76.70
2018-05-03T02:46:19.318Z,77.30
2018-05-03T02:49:21.304Z,77.10
2018-05-03T02:52:24.093Z,77.30
2018-05-03T02:55:26.112Z,77.30
2018-05-03T02:58:39.869Z,77.30
2018-05-03T03:01:50.786Z,77.20
2018-05-03T03:05:04.762Z,77.00
2018-05-03T03:11:56.208Z,76.80
2018-05-03T03:15:10.546Z,76.70
2018-05-03T03:18:24.307Z,77.00
2018-05-03T03:21:38.200Z,77.00
2018-05-03T03:28:26.206Z,77.30
2018-05-03T03:31:40.140Z,77.30
2018-05-03T03:34:42.180Z,77.30
2018-05-03T03:37:56.048Z,77.30
2018-05-03T03:41:11.012Z,76.80
2018-05-03T03:44:24.897Z,76.70
2018-05-03T03:47:26.890Z,76.80
2018-05-03T03:50:28.886Z,77.00
2018-05-03T03:53:30.886Z,77.20
2018-05-03T03:56:32.924Z,77.30
2018-05-03T03:59:34.894Z,77.70
2018-05-03T04:02:36.885Z,77.40
2018-05-03T04:05:39.648Z,76.80
2018-05-03T04:08:41.635Z,76.80
2018-05-03T04:11:44.403Z,76.30
2018-05-03T04:14:46.382Z,76.20
2018-05-03T04:18:01.040Z,75.60
2018-05-03T04:21:14.982Z,75.60
2018-05-03T04:24:28.803Z,76.10
2018-05-03T04:27:30.779Z,75.70
2018-05-03T04:30:32.784Z,75.80
2018-05-03T04:33:35.550Z,75.40
2018-05-03T04:36:37.565Z,75.40
2018-05-03T04:39:39.555Z,76.20
2018-05-03T04:42:41.571Z,76.60
2018-05-03T04:45:43.571Z,75.70
2018-05-03T04:48:45.761Z,75.60
2018-05-03T04:51:47.762Z,75.30
2018-05-03T04:54:50.536Z,74.90
2018-05-03T04:57:52.522Z,74.90
2018-05-03T05:00:54.529Z,74.60
2018-05-03T05:03:56.508Z,74.50
2018-05-03T05:06:58.513Z,73.70
2018-05-03T05:10:00.522Z,73.90
2018-05-03T05:13:02.568Z,72.90
2018-05-03T05:16:05.345Z,71.60
2018-05-03T05:19:08.093Z,71.60
2018-05-03T05:22:10.102Z,69.30
2018-05-03T05:25:12.808Z,65.90
2018-05-03T05:28:14.851Z,64.40
2018-05-03T05:31:16.922Z,61.70
2018-05-03T05:34:18.933Z,61.30
2018-05-03T05:37:20.920Z,59.70
2018-05-03T05:40:23.025Z,58.50
2018-05-03T05:43:25.799Z,55.60
2018-05-03T05:46:28.007Z,55.60
2018-05-03T05:49:30.086Z,55.50
2018-05-03T05:52:32.087Z,54.60
2018-05-03T05:55:34.071Z,53.30
2018-05-03T05:58:36.097Z,51.60
2018-05-03T06:01:38.081Z,51.40
2018-05-03T06:04:40.078Z,50.50
2018-05-03T06:07:42.069Z,50.20
2018-05-03T06:10:44.899Z,47.20
2018-05-03T06:13:46.977Z,47.20
2018-05-03T06:16:48.969Z,46.40
2018-05-03T06:19:50.952Z,45.70
2018-05-03T06:22:53.778Z,43.30
2018-05-03T06:25:55.875Z,43.30
2018-05-03T06:28:57.814Z,43.70
2018-05-03T06:32:01.166Z,39.90
2018-05-03T06:35:03.314Z,39.80
2018-05-03T06:38:05.442Z,39.40
2018-05-03T06:41:07.466Z,38.40
2018-05-03T06:44:10.237Z,38.40
2018-05-03T06:47:12.261Z,38.30
2018-05-03T06:50:14.319Z,38.10
2018-05-03T06:53:17.134Z,36.40
2018-05-03T06:56:19.110Z,36.30
2018-05-03T06:59:21.285Z,36.60
2018-05-03T07:02:23.293Z,34.70
2018-05-03T07:05:25.285Z,33.50
2018-05-03T07:08:27.486Z,32.70
2018-05-03T07:11:29.477Z,32.50
2018-05-03T07:14:31.458Z,32.20
2018-05-03T07:17:33.682Z,31.10
2018-05-03T07:20:35.668Z,30.20
2018-05-03T07:23:37.665Z,30.70
2018-05-03T07:26:39.703Z,29.70
2018-05-03T07:29:41.726Z,29.60
2018-05-03T07:32:43.733Z,29.00
2018-05-03T07:35:45.725Z,28.90
2018-05-03T07:38:47.773Z,28.60
2018-05-03T07:41:49.834Z,28.50
2018-05-03T07:44:51.838Z,28.30
2018-05-03T07:47:53.925Z,27.40
2018-05-03T07:50:57.494Z,26.50
2018-05-03T07:53:59.507Z,26.40
2018-05-03T07:57:01.522Z,27.10
2018-05-03T08:00:03.553Z,26.40
2018-05-03T08:03:06.303Z,26.80
2018-05-03T08:12:47.262Z,26.20
2018-05-03T08:15:50.045Z,24.80
2018-05-03T08:22:11.307Z,24.30
2018-05-03T08:25:13.325Z,24.40
2018-05-03T08:28:15.332Z,24.40
2018-05-03T08:31:17.347Z,23.30
2018-05-03T08:34:19.404Z,23.20
2018-05-03T08:37:21.396Z,24.10
2018-05-03T08:40:23.405Z,24.10
2018-05-03T08:43:25.487Z,24.00
2018-05-03T08:46:27.557Z,25.00
2018-05-03T08:49:29.580Z,25.00
2018-05-03T08:52:33.095Z,25.70
2018-05-03T08:55:35.163Z,25.70
2018-05-03T08:58:37.135Z,25.70
2018-05-03T09:01:39.986Z,27.10
2018-05-03T09:04:41.923Z,26.70
2018-05-03T09:07:43.970Z,27.10
2018-05-03T09:10:45.957Z,27.50
2018-05-03T09:13:47.944Z,28.10
2018-05-03T09:16:49.962Z,28.40
2018-05-03T09:19:51.935Z,28.90
2018-05-03T09:22:53.959Z,29.60
2018-05-03T09:25:55.964Z,29.90
2018-05-03T09:28:57.961Z,30.20
2018-05-03T09:32:00.007Z,30.80
2018-05-03T09:35:01.992Z,31.40
2018-05-03T09:38:03.995Z,31.80
2018-05-03T09:41:05.969Z,32.20
2018-05-03T09:44:07.975Z,31.70
2018-05-03T09:47:10.718Z,32.70
2018-05-03T09:50:12.715Z,32.60
2018-05-03T09:53:14.727Z,32.60
2018-05-03T09:56:16.723Z,32.00
2018-05-03T09:59:18.763Z,31.70
2018-05-03T10:02:20.877Z,31.00
2018-05-03T10:05:22.897Z,31.80
2018-05-03T10:08:25.009Z,32.00
2018-05-03T10:11:27.046Z,32.50
2018-05-03T10:14:29.060Z,32.80
2018-05-03T10:17:31.086Z,32.30
2018-05-03T10:20:33.147Z,32.80
2018-05-03T10:23:35.141Z,32.80
2018-05-03T10:26:37.159Z,32.80
2018-05-03T10:29:39.935Z,33.00
2018-05-03T10:32:42.685Z,32.50
2018-05-03T10:35:44.900Z,32.50
2018-05-03T10:38:46.846Z,32.90
2018-05-03T10:41:48.887Z,32.60
2018-05-03T10:44:50.872Z,33.10
2018-05-03T10:47:52.918Z,32.80
2018-05-03T10:50:54.936Z,33.50
2018-05-03T10:53:56.926Z,32.90
2018-05-03T10:56:58.916Z,33.00
2018-05-03T11:00:00.926Z,33.10
2018-05-03T11:03:02.947Z,33.50
2018-05-03T11:06:04.947Z,31.10
2018-05-03T11:09:06.928Z,29.80
2018-05-03T11:12:08.931Z,29.80
2018-05-03T11:15:10.916Z,30.00
2018-05-03T11:18:13.077Z,29.70
2018-05-03T11:21:15.067Z,28.20
2018-05-03T11:24:17.084Z,28.80
2018-05-03T11:27:19.202Z,27.70
2018-05-03T11:30:21.222Z,28.30
2018-05-03T11:33:23.218Z,28.30
2018-05-03T11:36:25.213Z,29.10
2018-05-03T11:39:27.190Z,29.40
2018-05-03T11:42:29.193Z,29.10
2018-05-03T11:45:31.158Z,29.50
2018-05-03T11:48:33.207Z,29.20
2018-05-03T11:51:35.209Z,28.30
2018-05-03T11:54:37.240Z,28.40
2018-05-03T11:57:39.247Z,28.80
2018-05-03T12:00:41.996Z,29.70
2018-05-03T12:03:44.071Z,29.70
2018-05-03T12:06:47.608Z,29.80
2018-05-03T12:09:49.584Z,29.70
2018-05-03T12:12:51.572Z,29.80
2018-05-03T12:15:53.570Z,29.80
2018-05-03T12:18:55.550Z,28.90
2018-05-03T12:21:57.563Z,30.20
2018-05-03T12:24:59.669Z,30.60
2018-05-03T12:28:02.040Z,30.20
2018-05-03T12:31:04.042Z,30.40
2018-05-03T12:34:06.105Z,30.90
2018-05-03T12:37:08.150Z,30.90
2018-05-03T12:40:10.330Z,30.10
2018-05-03T12:43:12.322Z,30.70
2018-05-03T12:46:14.293Z,32.20
2018-05-03T12:49:16.288Z,32.80
2018-05-03T12:52:18.292Z,32.70
2018-05-03T12:55:20.302Z,31.90
2018-05-03T12:58:22.279Z,32.20
2018-05-03T13:01:25.103Z,33.00
2018-05-03T13:04:27.085Z,32.90
2018-05-03T13:07:29.111Z,32.70
2018-05-03T13:10:31.109Z,33.00
2018-05-03T13:13:33.104Z,34.30
2018-05-03T13:16:35.097Z,35.20
2018-05-03T13:19:37.916Z,35.20
2018-05-03T13:22:39.915Z,35.10
2018-05-03T13:25:41.936Z,35.00
2018-05-03T13:28:43.939Z,34.70
2018-05-03T13:31:45.933Z,35.20
2018-05-03T13:34:48.135Z,34.80
2018-05-03T13:37:50.919Z,34.10
2018-05-03T13:40:53.200Z,34.00
2018-05-03T13:43:55.275Z,32.20
2018-05-03T13:46:58.780Z,34.80
2018-05-03T13:50:00.748Z,34.80
2018-05-03T13:53:02.760Z,36.30
2018-05-03T13:56:04.833Z,37.00
2018-05-03T13:59:06.963Z,37.00
2018-05-03T14:02:08.965Z,37.30
2018-05-03T14:05:11.064Z,37.70
2018-05-03T14:11:40.832Z,39.30
2018-05-03T14:14:42.820Z,39.20
2018-05-03T14:17:45.745Z,39.70
2018-05-03T14:20:48.654Z,39.80
2018-05-03T14:23:50.625Z,39.70
2018-05-03T14:26:52.681Z,39.60
2018-05-03T14:29:54.678Z,39.30
2018-05-03T14:32:56.703Z,38.30
2018-05-03T14:35:58.758Z,38.90
2018-05-03T14:39:00.772Z,39.20
2018-05-03T14:42:02.785Z,39.40
2018-05-03T14:45:04.823Z,39.70
2018-05-03T14:48:06.894Z,39.90
2018-05-03T14:51:08.879Z,40.00
2018-05-03T14:54:11.103Z,39.70
2018-05-03T14:57:14.640Z,40.60
2018-05-03T15:00:16.654Z,40.60
2018-05-03T15:03:18.789Z,40.10
2018-05-03T15:06:20.984Z,40.70
2018-05-03T15:09:23.042Z,40.20
2018-05-03T15:12:25.098Z,39.70
2018-05-03T15:15:27.059Z,40.10
2018-05-03T15:18:29.169Z,40.10
2018-05-03T15:21:31.355Z,39.60
2018-05-03T15:24:35.025Z,41.00
2018-05-03T15:27:37.345Z,41.00
2018-05-03T15:30:39.387Z,41.60
2018-05-03T15:33:42.161Z,42.20
2018-05-03T15:36:44.159Z,42.60
2018-05-03T15:39:46.485Z,42.10
2018-05-03T15:42:48.483Z,41.80
2018-05-03T15:45:50.574Z,41.30
2018-05-03T15:48:52.641Z,41.00
2018-05-03T15:51:54.660Z,41.30
2018-05-03T15:54:56.684Z,41.40
2018-05-03T15:57:58.736Z,41.50
2018-05-03T16:01:00.743Z,41.50
2018-05-03T16:04:02.730Z,41.80
2018-05-03T16:07:04.881Z,42.20
2018-05-03T16:10:06.890Z,42.30
2018-05-03T16:13:08.965Z,42.70
2018-05-03T16:16:11.036Z,42.90
2018-05-03T16:19:13.030Z,43.20
2018-05-03T16:22:15.103Z,43.60
2018-05-03T16:25:17.129Z,43.70
2018-05-03T16:28:19.123Z,44.10
2018-05-03T16:31:21.151Z,44.20
2018-05-03T16:34:23.148Z,44.50
2018-05-03T16:37:25.190Z,44.60
2018-05-03T16:40:27.462Z,44.80
2018-05-03T16:43:29.451Z,44.70
2018-05-03T16:46:31.478Z,44.60
2018-05-03T16:49:33.673Z,44.30
2018-05-03T16:52:35.696Z,44.00
2018-05-03T16:55:37.753Z,44.20
2018-05-03T16:58:39.738Z,44.00
2018-05-03T17:01:41.949Z,44.30
2018-05-03T17:04:43.948Z,44.50
2018-05-03T17:07:46.187Z,44.80
2018-05-03T17:10:48.361Z,44.80
2018-05-03T17:13:50.403Z,45.00
2018-05-03T17:16:52.399Z,45.40
2018-05-03T17:19:54.394Z,45.80
2018-05-03T17:22:56.651Z,45.80
2018-05-03T17:25:58.635Z,46.20
2018-05-03T17:29:00.645Z,46.00
2018-05-03T17:32:03.052Z,45.80
2018-05-03T17:35:05.122Z,45.90
2018-05-03T17:38:07.117Z,46.00
2018-05-03T17:41:09.158Z,46.30
2018-05-03T17:44:11.155Z,46.40
2018-05-03T17:47:13.153Z,47.00
2018-05-03T17:50:15.162Z,47.00
2018-05-03T17:53:17.178Z,47.20
2018-05-03T17:56:19.164Z,47.50
2018-05-03T17:59:21.186Z,47.60
2018-05-03T18:02:23.289Z,48.00
2018-05-03T18:05:26.455Z,48.40
2018-05-03T18:08:28.459Z,48.50
2018-05-03T18:11:31.293Z,49.30
2018-05-03T18:14:33.258Z,49.20
2018-05-03T18:17:35.277Z,49.70
2018-05-03T18:20:37.495Z,50.00
2018-05-03T18:23:39.632Z,50.40
2018-05-03T18:26:42.500Z,50.80
2018-05-03T18:29:44.498Z,50.70
2018-05-03T18:32:46.581Z,50.90
2018-05-03T18:35:49.505Z,51.20
2018-05-03T18:38:51.551Z,51.50
2018-05-03T18:41:53.569Z,51.80
2018-05-03T18:44:56.398Z,52.00
2018-05-03T18:47:58.422Z,52.00
2018-05-03T18:51:00.442Z,52.30
2018-05-03T18:54:02.616Z,52.50
2018-05-03T18:57:04.619Z,52.70
2018-05-03T19:00:06.651Z,52.90
2018-05-03T19:03:08.719Z,53.10
2018-05-03T19:06:10.784Z,53.10
2018-05-03T19:09:12.787Z,53.40
2018-05-03T19:12:14.875Z,53.50
2018-05-03T19:15:16.998Z,53.60
2018-05-03T19:18:19.059Z,53.80
2018-05-03T19:21:21.054Z,53.90
2018-05-03T19:24:23.791Z,54.30
2018-05-03T19:27:26.512Z,54.60
2018-05-03T19:30:28.528Z,54.60
2018-05-03T19:33:30.536Z,54.50
2018-05-03T19:36:33.320Z,55.00
2018-05-03T19:39:35.398Z,55.00
2018-05-03T19:42:37.951Z,55.10
2018-05-03T19:45:39.946Z,55.30
2018-05-03T19:48:41.937Z,56.10
2018-05-03T19:51:44.392Z,55.70
2018-05-03T19:54:46.450Z,55.70
2018-05-03T19:57:49.432Z,56.00
2018-05-03T20:00:51.425Z,56.00
2018-05-03T20:03:53.462Z,56.00
2018-05-03T20:06:56.460Z,55.70
2018-05-03T20:09:58.450Z,56.00
2018-05-03T20:13:00.446Z,56.10
2018-05-03T20:16:02.425Z,56.00
2018-05-03T20:19:04.435Z,56.10
2018-05-03T20:22:07.175Z,56.40
2018-05-03T20:25:09.162Z,56.40
2018-05-03T20:28:11.166Z,56.30
2018-05-03T20:31:13.176Z,56.40
2018-05-03T20:34:15.190Z,56.70
2018-05-03T20:37:17.974Z,56.70
2018-05-03T20:40:20.229Z,56.70
2018-05-03T20:43:22.245Z,56.80
2018-05-03T20:46:24.264Z,56.80
2018-05-03T20:49:26.956Z,56.90
2018-05-03T20:52:29.795Z,57.10
2018-05-03T20:55:31.815Z,57.10
2018-05-03T20:58:33.802Z,57.10
2018-05-03T21:01:36.600Z,57.00
2018-05-03T21:04:38.790Z,57.00
2018-05-03T21:07:40.818Z,56.80
2018-05-03T21:10:43.572Z,56.90
2018-05-03T21:13:45.554Z,56.90
2018-05-03T21:16:48.344Z,57.00
2018-05-03T21:19:51.273Z,57.00
2018-05-03T21:22:53.345Z,57.00
2018-05-03T21:25:55.408Z,57.00
2018-05-03T21:28:57.435Z,57.20
2018-05-03T21:31:59.481Z,57.20
2018-05-03T21:35:01.514Z,57.00
2018-05-03T21:38:03.523Z,57.10
2018-05-03T21:41:05.507Z,57.00
2018-05-03T21:44:07.534Z,57.00
2018-05-03T21:47:09.531Z,57.00
2018-05-03T21:50:11.502Z,57.20
2018-05-03T21:53:13.498Z,57.10
2018-05-03T21:56:16.239Z,57.00
2018-05-03T21:59:18.239Z,57.00
2018-05-03T22:02:20.230Z,57.00
2018-05-03T22:05:22.312Z,57.00
2018-05-03T22:08:24.306Z,57.10
2018-05-03T22:11:26.375Z,57.00
2018-05-03T22:14:28.423Z,57.10
2018-05-03T22:17:30.471Z,57.10
2018-05-03T22:20:33.295Z,57.20
2018-05-03T22:23:35.389Z,57.10
2018-05-03T22:26:37.585Z,57.20
2018-05-03T22:29:39.576Z,57.40
2018-05-03T22:32:42.344Z,57.30
2018-05-03T22:35:44.341Z,57.20
2018-05-03T22:38:46.332Z,57.50
2018-05-03T22:41:48.310Z,57.50
2018-05-03T22:44:50.527Z,57.60
2018-05-03T22:47:53.328Z,57.60
2018-05-03T22:50:56.172Z,57.70
2018-05-03T22:53:58.188Z,57.70
2018-05-03T22:57:00.851Z,57.90
2018-05-03T23:00:02.865Z,57.90
2018-05-03T23:03:04.879Z,57.70
2018-05-03T23:06:06.983Z,57.80
2018-05-03T23:09:08.995Z,57.70
2018-05-03T23:12:10.979Z,58.50
2018-05-03T23:15:13.048Z,58.00
2018-05-03T23:18:15.025Z,57.90
2018-05-03T23:21:17.000Z,57.90
2018-05-03T23:24:19.807Z,57.80
2018-05-03T23:27:21.829Z,57.80
2018-05-03T23:30:25.379Z,57.80
2018-05-03T23:33:27.357Z,57.70
2018-05-03T23:36:29.346Z,57.90
2018-05-03T23:39:31.333Z,58.30
2018-05-03T23:42:33.306Z,58.10
2018-05-03T23:45:35.324Z,58.30
2018-05-03T23:48:37.313Z,59.30
2018-05-03T23:51:39.323Z,58.40
2018-05-03T23:54:41.319Z,58.40
2018-05-03T23:57:43.318Z,58.50
